sensor_id;sensor_type;location;lat;lon;timestamp;P1;durP1;ratioP1;P2;durP2;ratioP2
75847;SDS011;65750;47.540;19.090;2023-01-16T00:00:15;31.58;;;16.27;;
75847;SDS011;65750;47.540;19.090;2023-01-16T00:02:44;27.10;;;14.00;;
75847;SDS011;65750;47.540;19.090;2023-01-16T00:05:12;26.67;;;13.30;;
75847;SDS011;65750;47.540;19.090;2023-01-16T00:07:39;28.20;;;13.33;;
75847;SDS011;65750;47.540;19.090;2023-01-16T00:10:07;26.77;;;13.65;;
75847;SDS011;65750;47.540;19.090;2023-01-16T00:12:35;27.40;;;13.45;;
75847;SDS011;65750;47.540;19.090;2023-01-16T00:15:03;27.77;;;14.32;;
75847;SDS011;65750;47.540;19.090;2023-01-16T00:17:31;25.95;;;13.18;;
75847;SDS011;65750;47.540;19.090;2023-01-16T00:19:58;25.13;;;12.77;;
75847;SDS011;65750;47.540;19.090;2023-01-16T00:22:26;28.00;;;14.50;;
75847;SDS011;65750;47.540;19.090;2023-01-16T00:24:54;26.85;;;14.10;;
75847;SDS011;65750;47.540;19.090;2023-01-16T00:27:21;27.60;;;13.30;;
75847;SDS011;65750;47.540;19.090;2023-01-16T00:29:48;24.87;;;12.18;;
75847;SDS011;65750;47.540;19.090;2023-01-16T00:32:15;25.00;;;12.27;;
75847;SDS011;65750;47.540;19.090;2023-01-16T00:34:43;27.25;;;13.35;;
75847;SDS011;65750;47.540;19.090;2023-01-16T00:37:10;24.25;;;11.73;;
75847;SDS011;65750;47.540;19.090;2023-01-16T00:39:39;26.02;;;12.40;;
75847;SDS011;65750;47.540;19.090;2023-01-16T00:42:07;24.58;;;11.93;;
75847;SDS011;65750;47.540;19.090;2023-01-16T00:44:34;24.97;;;11.70;;
75847;SDS011;65750;47.540;19.090;2023-01-16T00:47:01;29.15;;;13.15;;
75847;SDS011;65750;47.540;19.090;2023-01-16T00:49:28;25.30;;;12.80;;
75847;SDS011;65750;47.540;19.090;2023-01-16T00:51:56;26.80;;;13.30;;
75847;SDS011;65750;47.540;19.090;2023-01-16T00:54:23;25.67;;;12.65;;
75847;SDS011;65750;47.540;19.090;2023-01-16T00:56:51;26.57;;;12.90;;
75847;SDS011;65750;47.540;19.090;2023-01-16T00:59:19;24.17;;;12.32;;
75847;SDS011;65750;47.540;19.090;2023-01-16T01:01:46;28.77;;;13.20;;
75847;SDS011;65750;47.540;19.090;2023-01-16T01:04:13;28.17;;;12.20;;
75847;SDS011;65750;47.540;19.090;2023-01-16T01:06:42;27.40;;;13.48;;
75847;SDS011;65750;47.540;19.090;2023-01-16T01:09:09;28.77;;;12.97;;
75847;SDS011;65750;47.540;19.090;2023-01-16T01:11:36;26.75;;;13.30;;
75847;SDS011;65750;47.540;19.090;2023-01-16T01:14:05;24.58;;;12.20;;
75847;SDS011;65750;47.540;19.090;2023-01-16T01:16:33;26.90;;;13.38;;
75847;SDS011;65750;47.540;19.090;2023-01-16T01:19:00;32.53;;;16.15;;
75847;SDS011;65750;47.540;19.090;2023-01-16T01:21:27;29.63;;;15.10;;
75847;SDS011;65750;47.540;19.090;2023-01-16T01:23:55;25.12;;;12.52;;
75847;SDS011;65750;47.540;19.090;2023-01-16T01:26:22;25.02;;;12.25;;
75847;SDS011;65750;47.540;19.090;2023-01-16T01:28:49;28.00;;;12.73;;
75847;SDS011;65750;47.540;19.090;2023-01-16T01:31:18;24.98;;;13.02;;
75847;SDS011;65750;47.540;19.090;2023-01-16T01:33:45;27.63;;;14.20;;
75847;SDS011;65750;47.540;19.090;2023-01-16T01:36:12;25.12;;;12.35;;
75847;SDS011;65750;47.540;19.090;2023-01-16T01:38:39;29.52;;;13.57;;
75847;SDS011;65750;47.540;19.090;2023-01-16T01:41:06;24.70;;;12.13;;
75847;SDS011;65750;47.540;19.090;2023-01-16T01:43:41;26.25;;;11.85;;
75847;SDS011;65750;47.540;19.090;2023-01-16T01:46:14;29.90;;;13.97;;
75847;SDS011;65750;47.540;19.090;2023-01-16T01:48:46;27.30;;;13.13;;
75847;SDS011;65750;47.540;19.090;2023-01-16T01:51:15;26.55;;;13.00;;
75847;SDS011;65750;47.540;19.090;2023-01-16T01:53:44;23.95;;;11.80;;
75847;SDS011;65750;47.540;19.090;2023-01-16T01:56:14;25.80;;;11.32;;
75847;SDS011;65750;47.540;19.090;2023-01-16T01:58:43;22.30;;;10.83;;
75847;SDS011;65750;47.540;19.090;2023-01-16T02:01:11;26.02;;;12.15;;
75847;SDS011;65750;47.540;19.090;2023-01-16T02:03:41;24.10;;;11.57;;
75847;SDS011;65750;47.540;19.090;2023-01-16T02:06:12;25.42;;;11.60;;
75847;SDS011;65750;47.540;19.090;2023-01-16T02:08:41;25.25;;;11.30;;
75847;SDS011;65750;47.540;19.090;2023-01-16T02:11:11;25.07;;;11.13;;
75847;SDS011;65750;47.540;19.090;2023-01-16T02:13:51;27.30;;;12.50;;
75847;SDS011;65750;47.540;19.090;2023-01-16T02:16:19;26.17;;;13.65;;
75847;SDS011;65750;47.540;19.090;2023-01-16T02:19:06;29.08;;;13.07;;
75847;SDS011;65750;47.540;19.090;2023-01-16T02:25:01;29.57;;;13.33;;
75847;SDS011;65750;47.540;19.090;2023-01-16T02:28:03;29.80;;;14.35;;
75847;SDS011;65750;47.540;19.090;2023-01-16T02:30:53;27.85;;;14.52;;
75847;SDS011;65750;47.540;19.090;2023-01-16T02:33:28;29.73;;;14.20;;
75847;SDS011;65750;47.540;19.090;2023-01-16T02:36:01;26.40;;;13.52;;
75847;SDS011;65750;47.540;19.090;2023-01-16T02:38:35;24.70;;;11.50;;
75847;SDS011;65750;47.540;19.090;2023-01-16T02:41:17;26.00;;;12.80;;
75847;SDS011;65750;47.540;19.090;2023-01-16T02:43:51;28.50;;;15.05;;
75847;SDS011;65750;47.540;19.090;2023-01-16T02:46:23;26.70;;;11.48;;
75847;SDS011;65750;47.540;19.090;2023-01-16T02:48:56;24.02;;;11.23;;
75847;SDS011;65750;47.540;19.090;2023-01-16T02:51:28;25.83;;;11.93;;
75847;SDS011;65750;47.540;19.090;2023-01-16T02:54:00;23.52;;;11.12;;
75847;SDS011;65750;47.540;19.090;2023-01-16T02:56:37;25.42;;;11.43;;
75847;SDS011;65750;47.540;19.090;2023-01-16T02:59:07;25.02;;;11.30;;
75847;SDS011;65750;47.540;19.090;2023-01-16T03:01:37;24.52;;;10.77;;
75847;SDS011;65750;47.540;19.090;2023-01-16T03:07:08;27.45;;;11.45;;
75847;SDS011;65750;47.540;19.090;2023-01-16T03:09:56;27.08;;;12.80;;
75847;SDS011;65750;47.540;19.090;2023-01-16T03:12:33;28.23;;;12.80;;
75847;SDS011;65750;47.540;19.090;2023-01-16T03:15:07;27.62;;;14.15;;
75847;SDS011;65750;47.540;19.090;2023-01-16T03:17:41;29.10;;;13.77;;
75847;SDS011;65750;47.540;19.090;2023-01-16T03:20:20;29.98;;;14.18;;
75847;SDS011;65750;47.540;19.090;2023-01-16T03:22:55;28.08;;;12.45;;
75847;SDS011;65750;47.540;19.090;2023-01-16T03:25:29;26.20;;;11.73;;
75847;SDS011;65750;47.540;19.090;2023-01-16T03:28:04;25.95;;;11.20;;
75847;SDS011;65750;47.540;19.090;2023-01-16T03:30:36;26.80;;;11.23;;
75847;SDS011;65750;47.540;19.090;2023-01-16T03:33:12;26.17;;;11.70;;
75847;SDS011;65750;47.540;19.090;2023-01-16T03:35:46;29.75;;;14.07;;
75847;SDS011;65750;47.540;19.090;2023-01-16T03:38:17;29.05;;;13.05;;
75847;SDS011;65750;47.540;19.090;2023-01-16T03:40:46;26.95;;;12.10;;
75847;SDS011;65750;47.540;19.090;2023-01-16T03:43:15;28.87;;;13.33;;
75847;SDS011;65750;47.540;19.090;2023-01-16T03:45:46;31.08;;;14.63;;
75847;SDS011;65750;47.540;19.090;2023-01-16T03:48:18;36.50;;;18.52;;
75847;SDS011;65750;47.540;19.090;2023-01-16T03:50:49;35.10;;;15.23;;
75847;SDS011;65750;47.540;19.090;2023-01-16T03:53:19;34.05;;;15.57;;
75847;SDS011;65750;47.540;19.090;2023-01-16T03:55:50;29.97;;;14.53;;
75847;SDS011;65750;47.540;19.090;2023-01-16T03:58:21;31.10;;;15.25;;
75847;SDS011;65750;47.540;19.090;2023-01-16T04:00:55;28.50;;;13.77;;
75847;SDS011;65750;47.540;19.090;2023-01-16T04:03:27;28.55;;;11.43;;
75847;SDS011;65750;47.540;19.090;2023-01-16T04:05:56;28.27;;;12.52;;
75847;SDS011;65750;47.540;19.090;2023-01-16T04:08:30;31.97;;;12.23;;
75847;SDS011;65750;47.540;19.090;2023-01-16T04:11:01;31.17;;;12.98;;
75847;SDS011;65750;47.540;19.090;2023-01-16T04:13:32;27.42;;;12.30;;
75847;SDS011;65750;47.540;19.090;2023-01-16T04:16:01;29.52;;;13.02;;
75847;SDS011;65750;47.540;19.090;2023-01-16T04:18:33;28.62;;;13.05;;
75847;SDS011;65750;47.540;19.090;2023-01-16T04:21:02;30.77;;;12.80;;
75847;SDS011;65750;47.540;19.090;2023-01-16T04:23:31;31.95;;;13.55;;
75847;SDS011;65750;47.540;19.090;2023-01-16T04:25:58;30.80;;;13.38;;
75847;SDS011;65750;47.540;19.090;2023-01-16T04:28:25;30.35;;;14.10;;
75847;SDS011;65750;47.540;19.090;2023-01-16T04:30:52;32.97;;;13.40;;
75847;SDS011;65750;47.540;19.090;2023-01-16T04:33:19;31.37;;;13.00;;
75847;SDS011;65750;47.540;19.090;2023-01-16T04:35:48;28.58;;;12.95;;
75847;SDS011;65750;47.540;19.090;2023-01-16T04:38:15;30.15;;;13.50;;
75847;SDS011;65750;47.540;19.090;2023-01-16T04:40:43;30.45;;;13.68;;
75847;SDS011;65750;47.540;19.090;2023-01-16T04:43:10;31.58;;;14.70;;
75847;SDS011;65750;47.540;19.090;2023-01-16T04:45:37;37.37;;;15.87;;
75847;SDS011;65750;47.540;19.090;2023-01-16T04:48:06;32.47;;;15.13;;
75847;SDS011;65750;47.540;19.090;2023-01-16T04:50:33;36.05;;;15.88;;
75847;SDS011;65750;47.540;19.090;2023-01-16T04:53:02;40.67;;;17.42;;
75847;SDS011;65750;47.540;19.090;2023-01-16T04:55:29;36.50;;;16.55;;
75847;SDS011;65750;47.540;19.090;2023-01-16T04:57:56;35.73;;;15.53;;
75847;SDS011;65750;47.540;19.090;2023-01-16T05:00:23;37.50;;;16.27;;
75847;SDS011;65750;47.540;19.090;2023-01-16T05:02:52;33.72;;;15.90;;
75847;SDS011;65750;47.540;19.090;2023-01-16T05:05:19;38.03;;;15.68;;
75847;SDS011;65750;47.540;19.090;2023-01-16T05:07:47;34.28;;;16.60;;
75847;SDS011;65750;47.540;19.090;2023-01-16T05:10:36;39.23;;;17.37;;
75847;SDS011;65750;47.540;19.090;2023-01-16T05:13:03;36.28;;;16.80;;
75847;SDS011;65750;47.540;19.090;2023-01-16T05:15:30;37.70;;;17.17;;
75847;SDS011;65750;47.540;19.090;2023-01-16T05:17:57;36.80;;;17.52;;
75847;SDS011;65750;47.540;19.090;2023-01-16T05:20:25;38.97;;;18.25;;
75847;SDS011;65750;47.540;19.090;2023-01-16T05:22:52;40.03;;;17.87;;
75847;SDS011;65750;47.540;19.090;2023-01-16T05:25:19;39.72;;;18.65;;
75847;SDS011;65750;47.540;19.090;2023-01-16T05:27:49;40.05;;;18.73;;
75847;SDS011;65750;47.540;19.090;2023-01-16T05:30:17;40.60;;;19.02;;
75847;SDS011;65750;47.540;19.090;2023-01-16T05:32:44;42.00;;;19.48;;
75847;SDS011;65750;47.540;19.090;2023-01-16T05:35:12;42.47;;;19.47;;
75847;SDS011;65750;47.540;19.090;2023-01-16T05:37:41;40.47;;;19.10;;
75847;SDS011;65750;47.540;19.090;2023-01-16T05:40:09;37.72;;;19.08;;
75847;SDS011;65750;47.540;19.090;2023-01-16T05:42:37;38.97;;;17.92;;
75847;SDS011;65750;47.540;19.090;2023-01-16T05:45:06;41.80;;;19.58;;
75847;SDS011;65750;47.540;19.090;2023-01-16T05:47:33;46.20;;;19.90;;
75847;SDS011;65750;47.540;19.090;2023-01-16T05:50:01;50.25;;;21.80;;
75847;SDS011;65750;47.540;19.090;2023-01-16T05:52:28;51.08;;;22.20;;
75847;SDS011;65750;47.540;19.090;2023-01-16T05:54:55;49.60;;;22.58;;
75847;SDS011;65750;47.540;19.090;2023-01-16T05:57:23;50.58;;;21.70;;
75847;SDS011;65750;47.540;19.090;2023-01-16T05:59:50;47.07;;;21.77;;
75847;SDS011;65750;47.540;19.090;2023-01-16T06:02:19;52.67;;;22.75;;
75847;SDS011;65750;47.540;19.090;2023-01-16T06:04:47;47.53;;;21.30;;
75847;SDS011;65750;47.540;19.090;2023-01-16T06:07:14;49.47;;;21.92;;
75847;SDS011;65750;47.540;19.090;2023-01-16T06:09:41;45.08;;;20.75;;
75847;SDS011;65750;47.540;19.090;2023-01-16T06:12:11;46.33;;;21.40;;
75847;SDS011;65750;47.540;19.090;2023-01-16T06:14:40;49.17;;;21.98;;
75847;SDS011;65750;47.540;19.090;2023-01-16T06:17:07;54.25;;;23.08;;
75847;SDS011;65750;47.540;19.090;2023-01-16T06:19:36;47.53;;;21.40;;
75847;SDS011;65750;47.540;19.090;2023-01-16T06:22:03;46.60;;;21.27;;
75847;SDS011;65750;47.540;19.090;2023-01-16T06:24:30;47.87;;;20.63;;
75847;SDS011;65750;47.540;19.090;2023-01-16T06:26:58;48.17;;;19.40;;
75847;SDS011;65750;47.540;19.090;2023-01-16T06:29:25;43.95;;;19.17;;
75847;SDS011;65750;47.540;19.090;2023-01-16T06:31:52;40.00;;;18.00;;
75847;SDS011;65750;47.540;19.090;2023-01-16T06:34:19;38.20;;;16.30;;
75847;SDS011;65750;47.540;19.090;2023-01-16T06:36:48;39.60;;;17.17;;
75847;SDS011;65750;47.540;19.090;2023-01-16T06:39:15;39.92;;;17.10;;
75847;SDS011;65750;47.540;19.090;2023-01-16T06:41:42;38.17;;;15.93;;
75847;SDS011;65750;47.540;19.090;2023-01-16T06:44:10;35.35;;;15.70;;
75847;SDS011;65750;47.540;19.090;2023-01-16T06:46:37;38.03;;;16.75;;
75847;SDS011;65750;47.540;19.090;2023-01-16T06:49:04;42.90;;;16.70;;
75847;SDS011;65750;47.540;19.090;2023-01-16T06:51:31;36.50;;;15.68;;
75847;SDS011;65750;47.540;19.090;2023-01-16T06:54:00;38.25;;;15.57;;
75847;SDS011;65750;47.540;19.090;2023-01-16T06:56:28;33.67;;;14.80;;
75847;SDS011;65750;47.540;19.090;2023-01-16T06:58:55;36.85;;;15.90;;
75847;SDS011;65750;47.540;19.090;2023-01-16T07:01:22;39.27;;;18.33;;
75847;SDS011;65750;47.540;19.090;2023-01-16T07:03:50;40.17;;;17.92;;
75847;SDS011;65750;47.540;19.090;2023-01-16T07:06:17;38.70;;;17.50;;
75847;SDS011;65750;47.540;19.090;2023-01-16T07:08:44;38.08;;;18.67;;
75847;SDS011;65750;47.540;19.090;2023-01-16T07:11:15;40.90;;;19.37;;
75847;SDS011;65750;47.540;19.090;2023-01-16T07:13:42;39.43;;;18.10;;
75847;SDS011;65750;47.540;19.090;2023-01-16T07:16:10;33.60;;;15.98;;
75847;SDS011;65750;47.540;19.090;2023-01-16T07:18:55;38.15;;;17.15;;
75847;SDS011;65750;47.540;19.090;2023-01-16T07:21:40;41.50;;;19.62;;
75847;SDS011;65750;47.540;19.090;2023-01-16T07:24:27;39.22;;;18.62;;
75847;SDS011;65750;47.540;19.090;2023-01-16T07:26:58;37.80;;;17.97;;
75847;SDS011;65750;47.540;19.090;2023-01-16T07:29:28;36.85;;;17.50;;
75847;SDS011;65750;47.540;19.090;2023-01-16T07:31:56;38.60;;;16.70;;
75847;SDS011;65750;47.540;19.090;2023-01-16T07:34:24;34.67;;;15.25;;
75847;SDS011;65750;47.540;19.090;2023-01-16T07:36:51;37.22;;;15.43;;
75847;SDS011;65750;47.540;19.090;2023-01-16T07:39:19;39.20;;;15.83;;
75847;SDS011;65750;47.540;19.090;2023-01-16T07:41:46;38.35;;;16.45;;
75847;SDS011;65750;47.540;19.090;2023-01-16T07:44:18;35.13;;;16.27;;
75847;SDS011;65750;47.540;19.090;2023-01-16T07:46:45;39.78;;;17.00;;
75847;SDS011;65750;47.540;19.090;2023-01-16T07:49:12;35.00;;;15.52;;
75847;SDS011;65750;47.540;19.090;2023-01-16T07:51:40;34.87;;;15.77;;
75847;SDS011;65750;47.540;19.090;2023-01-16T07:54:08;34.50;;;15.32;;
75847;SDS011;65750;47.540;19.090;2023-01-16T07:56:36;37.60;;;15.25;;
75847;SDS011;65750;47.540;19.090;2023-01-16T07:59:04;32.80;;;14.13;;
75847;SDS011;65750;47.540;19.090;2023-01-16T08:01:32;31.75;;;14.43;;
75847;SDS011;65750;47.540;19.090;2023-01-16T08:04:00;26.60;;;11.57;;
75847;SDS011;65750;47.540;19.090;2023-01-16T08:06:27;27.48;;;11.40;;
75847;SDS011;65750;47.540;19.090;2023-01-16T08:08:55;28.77;;;12.07;;
75847;SDS011;65750;47.540;19.090;2023-01-16T08:11:22;31.95;;;12.45;;
75847;SDS011;65750;47.540;19.090;2023-01-16T08:14:05;28.73;;;11.70;;
75847;SDS011;65750;47.540;19.090;2023-01-16T08:16:34;27.83;;;11.80;;
75847;SDS011;65750;47.540;19.090;2023-01-16T08:19:01;28.12;;;11.68;;
75847;SDS011;65750;47.540;19.090;2023-01-16T08:21:29;26.35;;;11.60;;
75847;SDS011;65750;47.540;19.090;2023-01-16T08:23:56;31.95;;;11.63;;
75847;SDS011;65750;47.540;19.090;2023-01-16T08:26:23;30.33;;;12.02;;
75847;SDS011;65750;47.540;19.090;2023-01-16T08:28:50;29.87;;;13.00;;
75847;SDS011;65750;47.540;19.090;2023-01-16T08:31:18;32.58;;;13.18;;
75847;SDS011;65750;47.540;19.090;2023-01-16T08:33:47;30.80;;;13.30;;
75847;SDS011;65750;47.540;19.090;2023-01-16T08:36:15;27.15;;;11.85;;
75847;SDS011;65750;47.540;19.090;2023-01-16T08:38:45;30.27;;;12.48;;
75847;SDS011;65750;47.540;19.090;2023-01-16T08:41:13;27.70;;;12.03;;
75847;SDS011;65750;47.540;19.090;2023-01-16T08:43:58;26.27;;;11.98;;
75847;SDS011;65750;47.540;19.090;2023-01-16T08:46:43;27.37;;;11.80;;
75847;SDS011;65750;47.540;19.090;2023-01-16T08:49:30;28.15;;;12.05;;
75847;SDS011;65750;47.540;19.090;2023-01-16T08:52:15;25.73;;;11.63;;
75847;SDS011;65750;47.540;19.090;2023-01-16T08:54:42;28.47;;;12.13;;
75847;SDS011;65750;47.540;19.090;2023-01-16T08:57:09;25.17;;;12.20;;
75847;SDS011;65750;47.540;19.090;2023-01-16T08:59:37;26.62;;;11.75;;
75847;SDS011;65750;47.540;19.090;2023-01-16T09:02:04;27.58;;;12.05;;
75847;SDS011;65750;47.540;19.090;2023-01-16T09:04:35;29.30;;;12.60;;
75847;SDS011;65750;47.540;19.090;2023-01-16T09:07:02;26.10;;;11.03;;
75847;SDS011;65750;47.540;19.090;2023-01-16T09:09:29;25.37;;;11.88;;
75847;SDS011;65750;47.540;19.090;2023-01-16T09:11:57;29.27;;;13.20;;
75847;SDS011;65750;47.540;19.090;2023-01-16T09:14:42;27.70;;;11.88;;
75847;SDS011;65750;47.540;19.090;2023-01-16T09:17:09;26.17;;;11.82;;
75847;SDS011;65750;47.540;19.090;2023-01-16T09:19:37;26.07;;;12.10;;
75847;SDS011;65750;47.540;19.090;2023-01-16T09:22:05;27.98;;;12.10;;
75847;SDS011;65750;47.540;19.090;2023-01-16T09:24:32;29.10;;;12.88;;
75847;SDS011;65750;47.540;19.090;2023-01-16T09:27:00;26.17;;;12.25;;
75847;SDS011;65750;47.540;19.090;2023-01-16T09:29:28;25.45;;;12.25;;
75847;SDS011;65750;47.540;19.090;2023-01-16T09:31:55;26.60;;;11.10;;
75847;SDS011;65750;47.540;19.090;2023-01-16T09:34:22;27.73;;;11.55;;
75847;SDS011;65750;47.540;19.090;2023-01-16T09:36:51;28.52;;;11.93;;
75847;SDS011;65750;47.540;19.090;2023-01-16T09:39:18;25.65;;;11.43;;
75847;SDS011;65750;47.540;19.090;2023-01-16T09:41:49;29.48;;;11.68;;
75847;SDS011;65750;47.540;19.090;2023-01-16T09:44:40;31.83;;;11.47;;
75847;SDS011;65750;47.540;19.090;2023-01-16T09:47:08;30.75;;;11.50;;
75847;SDS011;65750;47.540;19.090;2023-01-16T09:49:37;33.65;;;13.05;;
75847;SDS011;65750;47.540;19.090;2023-01-16T09:52:12;33.47;;;12.73;;
75847;SDS011;65750;47.540;19.090;2023-01-16T09:55:02;33.33;;;12.13;;
75847;SDS011;65750;47.540;19.090;2023-01-16T09:57:50;34.93;;;12.47;;
75847;SDS011;65750;47.540;19.090;2023-01-16T10:00:37;31.42;;;11.88;;
75847;SDS011;65750;47.540;19.090;2023-01-16T10:03:05;34.63;;;13.90;;
75847;SDS011;65750;47.540;19.090;2023-01-16T10:05:34;31.87;;;13.20;;
75847;SDS011;65750;47.540;19.090;2023-01-16T10:08:08;28.67;;;11.90;;
75847;SDS011;65750;47.540;19.090;2023-01-16T10:10:42;31.13;;;12.03;;
75847;SDS011;65750;47.540;19.090;2023-01-16T10:13:17;31.48;;;12.52;;
75847;SDS011;65750;47.540;19.090;2023-01-16T10:15:52;34.20;;;12.48;;
75847;SDS011;65750;47.540;19.090;2023-01-16T10:18:27;30.67;;;11.50;;
75847;SDS011;65750;47.540;19.090;2023-01-16T10:21:06;32.10;;;12.20;;
75847;SDS011;65750;47.540;19.090;2023-01-16T10:23:46;30.70;;;11.80;;
75847;SDS011;65750;47.540;19.090;2023-01-16T10:26:17;30.45;;;11.48;;
75847;SDS011;65750;47.540;19.090;2023-01-16T10:28:52;32.15;;;12.63;;
75847;SDS011;65750;47.540;19.090;2023-01-16T10:31:22;33.20;;;12.18;;
75847;SDS011;65750;47.540;19.090;2023-01-16T10:33:54;33.80;;;13.05;;
75847;SDS011;65750;47.540;19.090;2023-01-16T10:36:24;28.00;;;11.30;;
75847;SDS011;65750;47.540;19.090;2023-01-16T10:38:58;36.38;;;13.75;;
75847;SDS011;65750;47.540;19.090;2023-01-16T10:41:26;32.63;;;11.93;;
75847;SDS011;65750;47.540;19.090;2023-01-16T10:44:27;36.10;;;13.02;;
75847;SDS011;65750;47.540;19.090;2023-01-16T10:47:15;34.20;;;13.57;;
75847;SDS011;65750;47.540;19.090;2023-01-16T10:50:01;31.93;;;12.57;;
75847;SDS011;65750;47.540;19.090;2023-01-16T10:52:29;32.05;;;12.20;;
75847;SDS011;65750;47.540;19.090;2023-01-16T10:54:58;30.75;;;12.37;;
75847;SDS011;65750;47.540;19.090;2023-01-16T10:57:26;35.33;;;13.45;;
75847;SDS011;65750;47.540;19.090;2023-01-16T10:59:54;31.17;;;12.88;;
75847;SDS011;65750;47.540;19.090;2023-01-16T11:02:26;30.17;;;12.73;;
75847;SDS011;65750;47.540;19.090;2023-01-16T11:04:56;34.30;;;12.95;;
75847;SDS011;65750;47.540;19.090;2023-01-16T11:07:25;33.58;;;12.75;;
75847;SDS011;65750;47.540;19.090;2023-01-16T11:09:54;36.28;;;13.50;;
75847;SDS011;65750;47.540;19.090;2023-01-16T11:12:23;30.50;;;12.68;;
75847;SDS011;65750;47.540;19.090;2023-01-16T11:15:17;30.77;;;11.77;;
75847;SDS011;65750;47.540;19.090;2023-01-16T11:18:17;31.77;;;13.07;;
75847;SDS011;65750;47.540;19.090;2023-01-16T11:20:55;32.47;;;12.93;;
75847;SDS011;65750;47.540;19.090;2023-01-16T11:23:24;32.22;;;12.82;;
75847;SDS011;65750;47.540;19.090;2023-01-16T11:25:53;34.78;;;14.20;;
75847;SDS011;65750;47.540;19.090;2023-01-16T11:28:25;31.93;;;12.80;;
75847;SDS011;65750;47.540;19.090;2023-01-16T11:30:54;36.28;;;12.68;;
75847;SDS011;65750;47.540;19.090;2023-01-16T11:33:24;38.60;;;14.68;;
75847;SDS011;65750;47.540;19.090;2023-01-16T11:35:54;37.80;;;14.45;;
75847;SDS011;65750;47.540;19.090;2023-01-16T11:38:23;40.42;;;14.43;;
75847;SDS011;65750;47.540;19.090;2023-01-16T11:40:52;36.60;;;13.93;;
75847;SDS011;65750;47.540;19.090;2023-01-16T11:43:22;37.00;;;14.02;;
75847;SDS011;65750;47.540;19.090;2023-01-16T11:46:20;37.08;;;14.18;;
75847;SDS011;65750;47.540;19.090;2023-01-16T11:48:58;33.78;;;14.52;;
75847;SDS011;65750;47.540;19.090;2023-01-16T11:51:28;33.65;;;14.87;;
75847;SDS011;65750;47.540;19.090;2023-01-16T11:53:56;29.30;;;12.93;;
75847;SDS011;65750;47.540;19.090;2023-01-16T11:56:28;34.17;;;13.70;;
75847;SDS011;65750;47.540;19.090;2023-01-16T11:59:14;34.35;;;13.55;;
75847;SDS011;65750;47.540;19.090;2023-01-16T12:01:52;36.17;;;14.30;;
75847;SDS011;65750;47.540;19.090;2023-01-16T12:04:50;35.42;;;13.70;;
75847;SDS011;65750;47.540;19.090;2023-01-16T12:07:39;36.20;;;13.70;;
75847;SDS011;65750;47.540;19.090;2023-01-16T12:10:15;31.37;;;13.02;;
75847;SDS011;65750;47.540;19.090;2023-01-16T12:12:52;34.85;;;13.93;;
75847;SDS011;65750;47.540;19.090;2023-01-16T12:16:03;29.70;;;12.27;;
75847;SDS011;65750;47.540;19.090;2023-01-16T12:18:38;33.55;;;13.62;;
75847;SDS011;65750;47.540;19.090;2023-01-16T12:21:13;31.17;;;11.90;;
75847;SDS011;65750;47.540;19.090;2023-01-16T12:23:51;34.95;;;12.75;;
75847;SDS011;65750;47.540;19.090;2023-01-16T12:26:24;33.72;;;13.45;;
75847;SDS011;65750;47.540;19.090;2023-01-16T12:29:00;36.08;;;13.55;;
75847;SDS011;65750;47.540;19.090;2023-01-16T12:31:38;32.53;;;13.13;;
75847;SDS011;65750;47.540;19.090;2023-01-16T12:34:20;30.03;;;12.93;;
75847;SDS011;65750;47.540;19.090;2023-01-16T12:37:21;33.20;;;13.10;;
75847;SDS011;65750;47.540;19.090;2023-01-16T12:39:59;39.80;;;14.65;;
75847;SDS011;65750;47.540;19.090;2023-01-16T12:42:36;35.42;;;14.18;;
75847;SDS011;65750;47.540;19.090;2023-01-16T12:45:30;31.12;;;11.93;;
75847;SDS011;65750;47.540;19.090;2023-01-16T12:48:11;37.20;;;13.57;;
75847;SDS011;65750;47.540;19.090;2023-01-16T12:50:48;34.97;;;13.45;;
75847;SDS011;65750;47.540;19.090;2023-01-16T12:53:30;32.50;;;12.00;;
75847;SDS011;65750;47.540;19.090;2023-01-16T12:56:12;35.92;;;13.32;;
75847;SDS011;65750;47.540;19.090;2023-01-16T12:58:51;33.42;;;12.82;;
75847;SDS011;65750;47.540;19.090;2023-01-16T13:01:21;36.20;;;13.90;;
75847;SDS011;65750;47.540;19.090;2023-01-16T13:03:52;33.95;;;13.13;;
75847;SDS011;65750;47.540;19.090;2023-01-16T13:06:22;35.35;;;13.95;;
75847;SDS011;65750;47.540;19.090;2023-01-16T13:08:53;38.05;;;14.07;;
75847;SDS011;65750;47.540;19.090;2023-01-16T13:11:26;34.78;;;13.60;;
75847;SDS011;65750;47.540;19.090;2023-01-16T13:14:14;38.03;;;14.53;;
75847;SDS011;65750;47.540;19.090;2023-01-16T13:16:44;35.33;;;14.13;;
75847;SDS011;65750;47.540;19.090;2023-01-16T13:19:14;33.00;;;12.88;;
75847;SDS011;65750;47.540;19.090;2023-01-16T13:21:49;34.65;;;13.40;;
75847;SDS011;65750;47.540;19.090;2023-01-16T13:24:19;37.70;;;14.27;;
75847;SDS011;65750;47.540;19.090;2023-01-16T13:26:52;39.73;;;14.83;;
75847;SDS011;65750;47.540;19.090;2023-01-16T13:29:22;37.45;;;14.70;;
75847;SDS011;65750;47.540;19.090;2023-01-16T13:31:52;38.55;;;15.23;;
75847;SDS011;65750;47.540;19.090;2023-01-16T13:34:25;35.83;;;15.15;;
75847;SDS011;65750;47.540;19.090;2023-01-16T13:37:13;35.67;;;14.77;;
75847;SDS011;65750;47.540;19.090;2023-01-16T13:42:48;35.38;;;14.60;;
75847;SDS011;65750;47.540;19.090;2023-01-16T13:45:19;35.53;;;14.80;;
75847;SDS011;65750;47.540;19.090;2023-01-16T13:48:11;35.22;;;14.32;;
75847;SDS011;65750;47.540;19.090;2023-01-16T13:50:42;38.03;;;14.57;;
75847;SDS011;65750;47.540;19.090;2023-01-16T13:53:14;33.63;;;13.90;;
75847;SDS011;65750;47.540;19.090;2023-01-16T13:55:41;35.17;;;14.45;;
75847;SDS011;65750;47.540;19.090;2023-01-16T13:58:10;32.13;;;14.02;;
75847;SDS011;65750;47.540;19.090;2023-01-16T14:00:42;34.67;;;14.43;;
75847;SDS011;65750;47.540;19.090;2023-01-16T14:03:20;35.70;;;15.05;;
75847;SDS011;65750;47.540;19.090;2023-01-16T14:05:50;31.20;;;13.70;;
75847;SDS011;65750;47.540;19.090;2023-01-16T14:08:22;29.98;;;12.75;;
75847;SDS011;65750;47.540;19.090;2023-01-16T14:11:22;30.95;;;13.43;;
75847;SDS011;65750;47.540;19.090;2023-01-16T14:17:07;30.67;;;14.02;;
75847;SDS011;65750;47.540;19.090;2023-01-16T14:19:35;33.53;;;13.20;;
75847;SDS011;65750;47.540;19.090;2023-01-16T14:22:05;34.45;;;14.38;;
75847;SDS011;65750;47.540;19.090;2023-01-16T14:24:56;28.70;;;12.55;;
75847;SDS011;65750;47.540;19.090;2023-01-16T14:27:27;31.17;;;12.82;;
75847;SDS011;65750;47.540;19.090;2023-01-16T14:29:56;30.23;;;13.15;;
75847;SDS011;65750;47.540;19.090;2023-01-16T14:32:26;33.13;;;12.73;;
75847;SDS011;65750;47.540;19.090;2023-01-16T14:34:55;31.33;;;12.48;;
75847;SDS011;65750;47.540;19.090;2023-01-16T14:37:26;30.40;;;12.95;;
75847;SDS011;65750;47.540;19.090;2023-01-16T14:39:55;34.17;;;14.43;;
75847;SDS011;65750;47.540;19.090;2023-01-16T14:42:26;32.05;;;13.35;;
75847;SDS011;65750;47.540;19.090;2023-01-16T14:45:21;35.33;;;14.03;;
75847;SDS011;65750;47.540;19.090;2023-01-16T14:48:09;31.42;;;13.40;;